Nearby METAR Reports

 

EGNS - Isle Of Man/Rona, United Kingdom
Distance from station: SSW 16mi, 26km
Updated: 26/06/2022 17:20
Mostly cloudy
Mostly cloudy
 Wind from S
Wind: S 25 mph , 41 km/h, Gust: 38 mph , 61 km/h
Temperature: 14°C
Dew Point: 11°C
Humidity: 82%
Barometer: 1003 hPa
Clouds: Mostly cloudy
Visibility: 6 miles , 10 km
Cloud details: Few Clouds 244 m
Mostly cloudy 457 m
2022/06/26 16:20 EGNS 261620Z 19022G33KT 9999 FEW008 BKN015 14/11 Q1003 NOSIG
EGAC - Belfast Harbour, United Kingdom
Distance from station: WNW 57mi, 92km
Updated: 26/06/2022 17:20
Light rain, Showers, Thunderstorm
Light rain, Showers, Thunderstorm
 Wind from S
Wind: S 13 mph , 20 km/h
Temperature: 15°C
Dew Point: 12°C
Humidity: 82%
Barometer: 1000 hPa
Summary: Light rain, Showers
Clouds: Thunderstorm
Visibility: 6 miles , 10 km
Cloud details: Few Clouds 1433 m
2022/06/26 16:20 EGAC 261620Z AUTO 19011KT 160V220 9999 -SHRA FEW047/// //////CB 15/12 Q1000
EGAA - Belfast/Aldergro, United Kingdom
Distance from station: WNW 71mi, 114km
Updated: 26/06/2022 17:20
Light rain, Thunderstorm
Light rain, Thunderstorm
 Wind from SSW
Wind: SSW 13 mph , 20 km/h
Temperature: 14°C
Dew Point: 12°C
Humidity: 88%
Barometer: 1000 hPa
Summary: Light rain
Clouds: Thunderstorm
Visibility: 6 miles , 10 km
Cloud details: Few Clouds 1006 m
Partly cloudy 1402 m
2022/06/26 16:20 EGAA 261620Z AUTO 20011KT 170V230 9999 -RA FEW033/// SCT046/// //////CB 14/12 Q1000 RERA
 
EGNH - Blackpool Airpor, United Kingdom
Distance from station: ESE 73mi, 117km
Updated: 26/06/2022 17:20
Partly cloudy
Partly cloudy
 Wind from SW
Wind: SW 25 mph , 41 km/h
Temperature: 17°C
Dew Point: 11°C
Humidity: 68%
Barometer: 1007 hPa
Clouds: Partly cloudy
Visibility: 6 miles , 10 km
Cloud details: Few Clouds 610 m
Partly cloudy 1158 m
2022/06/26 16:20 EGNH 261620Z 22022KT 9999 FEW020 SCT038 17/11 Q1007
EGOV - Valley Raf, United Kingdom
Distance from station: S 73mi, 118km
Updated: 26/06/2022 17:20
Clear
Clear
 Wind from S
Wind: S 36 mph , 57 km/h
Temperature: 16°C
Dew Point: 11°C
Humidity: 72%
Barometer: 1005 hPa
Clouds: Clear
Visibility: 6 miles , 10 km
2022/06/26 16:20 EGOV 261620Z AUTO 19031KT 9999 NCD 16/11 Q1005
EGNO - Wharton, United Kingdom
Distance from station: ESE 78mi, 125km
Updated: 24/06/2022 16:50
NOT Current
Mostly cloudy
Mostly cloudy
 Wind from S
Wind: S 10 mph , 17 km/h
Temperature: 19°C
Dew Point: 14°C
Humidity: 73%
Barometer: 999 hPa
Clouds: Mostly cloudy
Visibility: 6 miles , 10 km
Cloud details: Few Clouds 549 m
Mostly cloudy 1158 m
2022/06/24 15:50 EGNO 241550Z 18009KT 9999 FEW018 BKN038 19/14 Q0999
 
EGOW - Woodvale Raf, United Kingdom
Distance from station: SE 79mi, 127km
Updated: 24/06/2022 14:50
NOT Current
Partly cloudy
Partly cloudy
 Wind from S
Wind: S 10 mph , 17 km/h
Temperature: 20°C
Dew Point: 14°C
Humidity: 69%
Barometer: 1000 hPa
Clouds: Partly cloudy
Visibility: 6 miles , 10 km
Cloud details: Few Clouds 457 m
Partly cloudy 671 m
2022/06/24 13:50 EGOW 241350Z 17009KT 9999 FEW015 SCT022 20/14 Q1000 RMK WHT
EGPK - Prestwick(Civ/Na, United Kingdom
Distance from station: N 82mi, 132km
Updated: 26/06/2022 17:20
Mostly cloudy
Mostly cloudy
 Wind from S
Wind: S 22 mph , 35 km/h
Temperature: 15°C
Dew Point: 11°C
Humidity: 77%
Barometer: 1001 hPa
Clouds: Mostly cloudy
Visibility: 6 miles , 10 km
Cloud details: Few Clouds 701 m
Partly cloudy 853 m
Mostly cloudy 975 m
2022/06/26 16:20 EGPK 261620Z 18019KT 9999 FEW023 SCT028 BKN032 15/11 Q1001
EGCK - Caernarfon, United Kingdom
Distance from station: S 84mi, 136km
Updated: 26/06/2022 17:20
Mostly cloudy
Mostly cloudy
 Wind from SSW
Wind: SSW 23 mph , 37 km/h, Gust: 36 mph , 57 km/h
Temperature: 16°C
Dew Point: 11°C
Humidity: 72%
Barometer: 1006 hPa
Clouds: Mostly cloudy
Visibility: 6 miles , 10 km
Cloud details: Mostly cloudy 610 m
2022/06/26 16:20 EGCK 261620Z AUTO 20020G31KT 9999 BKN020/// 16/11 Q1006
 
EGEC - Campbeltown, United Kingdom
Distance from station: NNW 90mi, 144km
Updated: 26/06/2022 17:20
Light rain, Showers, Mostly cloudy
Light rain, Showers, Mostly cloudy
 Wind from SSE
Wind: SSE 23 mph , 37 km/h
Temperature: 14°C
Dew Point: 12°C
Humidity: 88%
Barometer: 998 hPa
Summary: Light rain, Showers
Clouds: Mostly cloudy
Visibility: 6 miles , 10 km
Cloud details: Few Clouds 335 m
Mostly cloudy 1463 m
2022/06/26 16:20 EGEC 261620Z 16020KT 9999 -SHRA FEW011 BKN048 14/12 Q0998
EIDW - Dublin Airport, Ireland
Distance from station: SW 93mi, 150km
Updated: 26/06/2022 17:30
Nearby showers, Mostly cloudy
Nearby showers, Mostly cloudy
 Wind from SW
Wind: SW 9 mph , 15 km/h
Temperature: 15°C
Dew Point: 12°C
Humidity: 82%
Barometer: 1002 hPa
Summary: Nearby Showers
Clouds: Mostly cloudy
Visibility: 6 miles , 10 km
Cloud details: Few Clouds 457 m
Partly cloudy 610 m
Mostly cloudy 1158 m
2022/06/26 16:30 EIDW 261630Z 22008KT 180V260 9999 VCSH FEW015 SCT020CB BKN038 15/12 Q1002 TEMPO SHRA
EGOM - Spadeadam, United Kingdom
Distance from station: NE 95mi, 152km
Updated: 26/06/2022 17:20

 Wind from SSW
Wind: SSW 22 mph , 35 km/h
Visibility: 6 miles , 10 km
2022/06/26 16:20 EGOM 261620Z AUTO 20019KT 9999 RERA OVC016/// 13/10 Q1005
 
EGGP - Liverpool Airpor, United Kingdom
Distance from station: SE 98mi, 157km
Updated: 26/06/2022 17:20
Mostly cloudy
Mostly cloudy
 Wind from SSW
Wind: SSW 25 mph , 41 km/h
Temperature: 19°C
Dew Point: 9°C
Humidity: 52%
Barometer: 1007 hPa
Clouds: Mostly cloudy
Visibility: 6 miles , 10 km
Cloud details: Partly cloudy 914 m
Mostly cloudy 1372 m
2022/06/26 16:20 EGGP 261620Z 20022KT 9999 SCT030 BKN045 19/09 Q1007
Flag Counter

Free Website Hit Counter
Free website hit counter